createdAt,value
2023-02-09T00:01:02.257Z,3.46
2023-02-09T00:03:28.960Z,3.37
2023-02-09T00:05:55.666Z,3.42
2023-02-09T00:08:22.565Z,3.47
2023-02-09T00:10:49.244Z,3.42
2023-02-09T00:13:15.890Z,3.27
2023-02-09T00:15:42.528Z,3.09
2023-02-09T00:18:09.207Z,3.13
2023-02-09T00:20:35.886Z,3.24
2023-02-09T00:23:02.540Z,3.31
2023-02-09T00:25:29.178Z,3.32
2023-02-09T00:27:55.869Z,3.14
2023-02-09T00:30:22.542Z,3.17
2023-02-09T00:32:49.225Z,3.25
2023-02-09T00:35:15.894Z,3.18
2023-02-09T00:37:42.554Z,2.95
2023-02-09T00:40:09.262Z,2.83
2023-02-09T00:42:35.906Z,2.83
2023-02-09T00:45:02.547Z,2.81
2023-02-09T00:47:29.190Z,2.78
2023-02-09T00:49:55.830Z,2.79
2023-02-09T00:52:22.494Z,2.70
2023-02-09T00:54:49.122Z,2.72
2023-02-09T00:57:15.745Z,2.74
2023-02-09T00:59:42.411Z,2.65
2023-02-09T01:02:09.131Z,2.48
2023-02-09T01:04:35.749Z,2.44
2023-02-09T01:07:02.392Z,2.44
2023-02-09T01:09:29.054Z,2.32
2023-02-09T01:11:55.727Z,2.31
2023-02-09T01:14:22.384Z,2.31
2023-02-09T01:16:49.083Z,2.29
2023-02-09T01:19:15.787Z,2.13
2023-02-09T01:21:42.448Z,2.13
2023-02-09T01:24:09.077Z,1.95
2023-02-09T01:26:35.789Z,1.98
2023-02-09T01:29:02.501Z,2.12
2023-02-09T01:31:29.200Z,2.15
2023-02-09T01:33:55.987Z,2.09
2023-02-09T01:36:22.675Z,2.01
2023-02-09T01:38:49.329Z,1.89
2023-02-09T01:41:16.075Z,1.80
2023-02-09T01:43:42.774Z,1.79
2023-02-09T01:46:09.458Z,1.83
2023-02-09T01:48:36.108Z,1.74
2023-02-09T01:51:02.781Z,1.74
2023-02-09T01:53:29.426Z,1.80
2023-02-09T01:55:56.115Z,1.75
2023-02-09T01:58:22.747Z,1.72
2023-02-09T02:00:49.470Z,1.64
2023-02-09T02:03:16.104Z,1.57
2023-02-09T02:05:42.750Z,1.58
2023-02-09T02:08:09.564Z,1.56
2023-02-09T02:10:36.220Z,1.53
2023-02-09T02:13:02.855Z,1.58
2023-02-09T02:15:29.463Z,1.39
2023-02-09T02:17:56.107Z,1.23
2023-02-09T02:20:22.746Z,1.18
2023-02-09T02:22:49.431Z,1.17
2023-02-09T02:25:16.062Z,1.17
2023-02-09T02:27:42.823Z,1.16
2023-02-09T02:30:09.547Z,1.10
2023-02-09T02:32:36.226Z,1.04
2023-02-09T02:35:02.913Z,0.99
2023-02-09T02:37:29.639Z,0.95
2023-02-09T02:39:56.308Z,0.86
2023-02-09T02:42:22.914Z,0.71
2023-02-09T02:44:49.556Z,0.72
2023-02-09T02:47:16.218Z,0.81
2023-02-09T02:49:42.821Z,0.84
2023-02-09T02:52:09.547Z,0.82
2023-02-09T02:54:36.229Z,0.80
2023-02-09T02:57:02.927Z,0.71
2023-02-09T02:59:29.577Z,0.64
2023-02-09T03:01:56.334Z,0.74
2023-02-09T03:04:23.032Z,0.72
2023-02-09T03:06:49.636Z,0.69
2023-02-09T03:09:16.301Z,0.60
2023-02-09T03:11:42.925Z,0.57
2023-02-09T03:14:09.568Z,0.54
2023-02-09T03:16:36.174Z,0.55
2023-02-09T03:19:05.401Z,0.46
2023-02-09T03:21:32.095Z,0.58
2023-02-09T03:23:58.779Z,0.58
2023-02-09T03:26:25.459Z,0.35
2023-02-09T03:28:52.070Z,0.47
2023-02-09T03:31:18.818Z,0.50
2023-02-09T03:33:45.520Z,0.54
2023-02-09T03:36:12.145Z,0.54
2023-02-09T03:38:38.845Z,0.40
2023-02-09T03:41:07.748Z,0.21
2023-02-09T03:43:34.571Z,0.28
2023-02-09T03:46:01.317Z,0.24
2023-02-09T03:48:27.932Z,-0.05
2023-02-09T03:50:54.631Z,-0.10
2023-02-09T03:53:21.261Z,-0.02
2023-02-09T03:55:47.922Z,-0.21
2023-02-09T03:58:14.610Z,-0.04
2023-02-09T04:00:41.583Z,-0.07
2023-02-09T04:03:08.200Z,-0.06
2023-02-09T04:05:35.383Z,-0.13
2023-02-09T04:08:02.265Z,-0.12
2023-02-09T04:10:28.935Z,-0.11
2023-02-09T04:12:56.018Z,-0.20
2023-02-09T04:15:22.841Z,-0.15
2023-02-09T04:17:50.833Z,-0.19
2023-02-09T04:20:17.613Z,-0.34
2023-02-09T04:22:44.293Z,-0.34
2023-02-09T04:25:10.973Z,-0.28
2023-02-09T04:27:37.669Z,-0.34
2023-02-09T04:30:04.276Z,-0.39
2023-02-09T04:32:30.911Z,-0.48
2023-02-09T04:34:57.541Z,-0.32
2023-02-09T04:37:24.243Z,-0.43
2023-02-09T04:39:50.892Z,-0.53
2023-02-09T04:42:17.529Z,-0.46
2023-02-09T04:44:44.178Z,-0.47
2023-02-09T04:47:10.782Z,-0.44
2023-02-09T04:49:37.462Z,-0.47
2023-02-09T04:52:04.065Z,-0.50
2023-02-09T04:54:30.750Z,-0.86
2023-02-09T04:56:57.408Z,-0.77
2023-02-09T04:59:24.041Z,-0.99
2023-02-09T05:01:50.685Z,-1.35
2023-02-09T05:04:17.343Z,-1.00
2023-02-09T05:06:43.993Z,-0.84
2023-02-09T05:09:10.631Z,-0.86
2023-02-09T05:11:37.270Z,-0.83
2023-02-09T05:14:03.976Z,-0.98
2023-02-09T05:16:30.737Z,-0.94
2023-02-09T05:18:57.472Z,-0.85
2023-02-09T05:21:24.139Z,-0.75
2023-02-09T05:23:50.825Z,-0.92
2023-02-09T05:26:17.454Z,-0.84
2023-02-09T05:28:44.095Z,-0.93
2023-02-09T05:31:10.775Z,-1.25
2023-02-09T05:33:37.571Z,-1.23
2023-02-09T05:36:04.251Z,-1.05
2023-02-09T05:38:30.872Z,-0.94
2023-02-09T05:40:57.537Z,-0.94
2023-02-09T05:43:24.203Z,-0.93
2023-02-09T05:45:50.960Z,-1.28
2023-02-09T05:48:17.708Z,-1.26
2023-02-09T05:50:44.687Z,-1.08
2023-02-09T05:53:12.204Z,-0.91
2023-02-09T05:55:39.498Z,-0.92
2023-02-09T05:58:06.224Z,-0.83
2023-02-09T06:00:32.909Z,-0.81
2023-02-09T06:02:59.592Z,-0.86
2023-02-09T06:05:26.259Z,-0.85
2023-02-09T06:08:11.872Z,-1.07
2023-02-09T06:10:38.496Z,-1.11
2023-02-09T06:13:05.169Z,-1.30
2023-02-09T06:15:31.821Z,-1.26
2023-02-09T06:17:58.427Z,-0.93
2023-02-09T06:20:25.011Z,-0.86
2023-02-09T06:22:51.715Z,-1.22
2023-02-09T06:25:18.429Z,-1.31
2023-02-09T06:27:45.113Z,-1.09
2023-02-09T06:30:11.762Z,-0.95
2023-02-09T06:32:38.411Z,-0.95
2023-02-09T06:35:05.056Z,-0.96
2023-02-09T06:37:31.743Z,-0.93
2023-02-09T06:39:58.392Z,-0.81
2023-02-09T06:42:25.033Z,-0.82
2023-02-09T06:44:51.728Z,-0.68
2023-02-09T06:47:18.383Z,-0.64
2023-02-09T06:49:45.090Z,-0.75
2023-02-09T06:52:11.853Z,-0.50
2023-02-09T06:54:38.570Z,-0.81
2023-02-09T06:57:05.209Z,-0.61
2023-02-09T06:59:31.848Z,-0.44
2023-02-09T07:01:58.571Z,-0.54
2023-02-09T07:04:25.225Z,-0.59
2023-02-09T07:06:51.871Z,-0.73
2023-02-09T07:09:18.522Z,-0.69
2023-02-09T07:11:45.195Z,-0.53
2023-02-09T07:14:11.807Z,-0.49
2023-02-09T07:16:38.467Z,-0.15
2023-02-09T07:19:05.100Z,-0.16
2023-02-09T07:21:31.737Z,-0.03
2023-02-09T07:23:58.428Z,0.16
2023-02-09T07:26:25.112Z,0.04
2023-02-09T07:28:51.844Z,-0.10
2023-02-09T07:31:18.721Z,-0.06
2023-02-09T07:33:45.483Z,0.04
2023-02-09T07:36:12.118Z,0.45
2023-02-09T07:38:38.910Z,0.73
2023-02-09T07:41:05.684Z,0.60
2023-02-09T07:43:32.345Z,0.78
2023-02-09T07:45:59.053Z,0.81
2023-02-09T07:48:25.680Z,1.09
2023-02-09T07:50:52.301Z,1.12
2023-02-09T07:53:18.916Z,1.22
2023-02-09T07:55:45.897Z,1.59
2023-02-09T07:58:12.771Z,1.18
2023-02-09T08:00:39.423Z,1.51
2023-02-09T08:03:06.039Z,1.60
2023-02-09T08:05:32.655Z,1.48
2023-02-09T08:07:59.358Z,1.46
2023-02-09T08:10:26.132Z,1.66
2023-02-09T08:12:52.849Z,1.77
2023-02-09T08:15:19.461Z,2.01
2023-02-09T08:17:46.134Z,2.31
2023-02-09T08:20:12.810Z,2.13
2023-02-09T08:22:39.452Z,2.19
2023-02-09T08:25:06.152Z,2.24
2023-02-09T08:27:32.806Z,2.66
2023-02-09T08:29:59.404Z,2.58
2023-02-09T08:32:26.048Z,2.24
2023-02-09T08:34:52.740Z,2.75
2023-02-09T08:37:19.346Z,2.51
2023-02-09T08:39:46.005Z,2.59
2023-02-09T08:42:12.695Z,2.93
2023-02-09T08:44:39.394Z,3.05
2023-02-09T08:47:06.163Z,3.35
2023-02-09T08:49:32.913Z,3.47
2023-02-09T08:51:59.633Z,3.65
2023-02-09T08:54:26.243Z,3.88
2023-02-09T08:56:52.872Z,4.00
2023-02-09T08:59:20.203Z,4.12
2023-02-09T09:01:47.120Z,4.05
2023-02-09T09:04:13.881Z,3.91
2023-02-09T09:06:40.651Z,3.86
2023-02-09T09:09:07.315Z,4.07
2023-02-09T09:11:33.999Z,4.17
2023-02-09T09:14:00.682Z,4.31
2023-02-09T09:16:27.381Z,4.66
2023-02-09T09:18:54.110Z,4.79
2023-02-09T09:21:20.798Z,4.72
2023-02-09T09:23:47.491Z,4.97
2023-02-09T09:26:14.223Z,5.12
2023-02-09T09:28:40.910Z,5.31
2023-02-09T09:31:07.612Z,5.11
2023-02-09T09:33:34.376Z,5.36
2023-02-09T09:36:01.056Z,5.31
2023-02-09T09:38:27.733Z,5.47
2023-02-09T09:40:54.418Z,5.37
2023-02-09T09:43:21.132Z,5.67
2023-02-09T09:45:48.106Z,5.94
2023-02-09T09:48:15.037Z,5.98
2023-02-09T09:50:41.699Z,6.24
2023-02-09T09:53:08.385Z,6.30
2023-02-09T09:55:35.057Z,6.28
2023-02-09T09:58:01.674Z,6.47
2023-02-09T10:00:28.343Z,6.82
2023-02-09T10:02:54.958Z,6.87
2023-02-09T10:05:21.727Z,6.96
2023-02-09T10:07:48.442Z,6.98
2023-02-09T10:10:15.100Z,7.17
2023-02-09T10:12:41.744Z,7.17
2023-02-09T10:15:08.454Z,6.51
2023-02-09T10:17:35.093Z,6.67
2023-02-09T10:20:01.709Z,6.33
2023-02-09T10:22:28.463Z,7.02
2023-02-09T10:24:55.226Z,7.61
2023-02-09T10:27:21.885Z,6.78
2023-02-09T10:29:48.579Z,7.00
2023-02-09T10:32:15.220Z,6.43
2023-02-09T10:34:41.903Z,6.88
2023-02-09T10:37:08.540Z,7.02
2023-02-09T10:39:35.189Z,6.96
2023-02-09T10:42:01.812Z,7.41
2023-02-09T10:44:28.428Z,7.74
2023-02-09T10:46:55.050Z,7.93
2023-02-09T10:49:21.707Z,7.76
2023-02-09T10:51:50.238Z,8.30
2023-02-09T10:54:17.648Z,7.59
2023-02-09T10:56:44.297Z,8.09
2023-02-09T10:59:10.931Z,8.33
2023-02-09T11:01:37.664Z,7.29
2023-02-09T11:04:04.379Z,8.18
2023-02-09T11:06:31.110Z,7.63
2023-02-09T11:08:57.733Z,7.44
2023-02-09T11:11:24.400Z,7.97
2023-02-09T11:13:51.032Z,8.56
2023-02-09T11:16:17.704Z,8.04
2023-02-09T11:18:44.396Z,8.58
2023-02-09T11:21:11.045Z,8.77
2023-02-09T11:23:37.748Z,8.71
2023-02-09T11:26:04.367Z,7.83
2023-02-09T11:28:31.025Z,7.90
2023-02-09T11:30:57.785Z,7.02
2023-02-09T11:33:24.494Z,7.86
2023-02-09T11:35:51.152Z,7.34
2023-02-09T11:38:17.797Z,7.49
2023-02-09T11:40:44.746Z,8.01
2023-02-09T11:43:11.476Z,8.87
2023-02-09T11:45:38.173Z,9.02
2023-02-09T11:48:04.790Z,9.46
2023-02-09T11:50:31.424Z,10.12
2023-02-09T11:52:58.079Z,8.75
2023-02-09T11:55:24.708Z,8.52
2023-02-09T11:57:51.427Z,8.68
2023-02-09T12:00:18.085Z,9.40
2023-02-09T12:02:44.728Z,9.71
2023-02-09T12:05:11.441Z,9.43
2023-02-09T12:07:38.151Z,8.85
2023-02-09T12:10:04.799Z,8.31
2023-02-09T12:12:31.469Z,8.52
2023-02-09T12:14:58.136Z,6.98
2023-02-09T12:17:24.823Z,8.09
2023-02-09T12:19:51.515Z,8.29
2023-02-09T12:22:18.169Z,7.71
2023-02-09T12:24:44.833Z,8.20
2023-02-09T12:27:11.495Z,7.06
2023-02-09T12:29:38.190Z,7.40
2023-02-09T12:32:04.871Z,8.17
2023-02-09T12:34:31.584Z,9.30
2023-02-09T12:36:58.247Z,9.69
2023-02-09T12:39:24.918Z,9.68
2023-02-09T12:41:51.664Z,9.13
2023-02-09T12:44:18.323Z,8.41
2023-02-09T12:46:45.046Z,8.00
2023-02-09T12:49:11.903Z,8.05
2023-02-09T12:51:38.610Z,8.22
2023-02-09T12:54:05.318Z,9.41
2023-02-09T12:56:31.966Z,9.78
2023-02-09T12:58:58.622Z,10.16
2023-02-09T13:01:25.374Z,10.67
2023-02-09T13:03:52.057Z,10.82
2023-02-09T13:06:18.802Z,10.83
2023-02-09T13:08:45.504Z,9.38
2023-02-09T13:11:12.193Z,9.04
2023-02-09T13:13:38.832Z,9.45
2023-02-09T13:16:05.845Z,10.05
2023-02-09T13:18:33.236Z,10.38
2023-02-09T13:20:59.903Z,10.70
2023-02-09T13:23:26.597Z,10.91
2023-02-09T13:25:53.303Z,10.90
2023-02-09T13:28:20.371Z,10.64
2023-02-09T13:30:47.088Z,9.98
2023-02-09T13:33:13.783Z,8.32
2023-02-09T13:35:40.505Z,7.84
2023-02-09T13:38:07.303Z,7.47
2023-02-09T13:40:33.937Z,7.71
2023-02-09T13:45:45.202Z,7.40
2023-02-09T13:48:13.189Z,7.03
2023-02-09T13:50:39.842Z,7.09
2023-02-09T13:53:06.456Z,7.81
2023-02-09T13:55:33.119Z,8.00
2023-02-09T13:57:59.777Z,8.07
2023-02-09T14:00:26.461Z,7.46
2023-02-09T14:02:53.185Z,7.94
2023-02-09T14:05:19.837Z,7.76
2023-02-09T14:07:46.503Z,7.52
2023-02-09T14:10:13.301Z,7.25
2023-02-09T14:12:39.996Z,7.49
2023-02-09T14:15:06.737Z,8.86
2023-02-09T14:17:33.485Z,9.59
2023-02-09T14:20:00.198Z,10.11
2023-02-09T14:22:26.904Z,10.32
2023-02-09T14:24:53.580Z,8.79
2023-02-09T14:27:20.259Z,8.46
2023-02-09T14:29:46.933Z,8.27
2023-02-09T14:32:15.425Z,7.46
2023-02-09T14:34:45.953Z,7.41
2023-02-09T14:37:12.607Z,7.58
2023-02-09T14:39:39.967Z,8.55
2023-02-09T14:42:06.618Z,9.00
2023-02-09T14:44:33.282Z,8.71
2023-02-09T14:46:59.953Z,8.27
2023-02-09T14:49:26.596Z,8.63
2023-02-09T14:51:53.373Z,7.98
2023-02-09T14:54:20.061Z,8.37
2023-02-09T14:56:46.745Z,8.80
2023-02-09T14:59:13.420Z,8.87
2023-02-09T15:01:40.556Z,8.68
2023-02-09T15:04:07.261Z,7.88
2023-02-09T15:06:33.975Z,8.15
2023-02-09T15:09:00.615Z,8.38
2023-02-09T15:11:27.296Z,8.54
2023-02-09T15:13:53.939Z,8.58
2023-02-09T15:16:20.724Z,7.18
2023-02-09T15:18:47.451Z,7.23
2023-02-09T15:21:14.099Z,7.44
2023-02-09T15:23:40.810Z,7.01
2023-02-09T15:26:07.449Z,6.92
2023-02-09T15:28:34.277Z,6.64
2023-02-09T15:31:01.006Z,6.81
2023-02-09T15:33:27.696Z,6.86
2023-02-09T15:35:54.358Z,7.11
2023-02-09T15:38:21.081Z,7.30
2023-02-09T15:40:47.973Z,7.33
2023-02-09T15:43:14.798Z,6.89
2023-02-09T15:45:41.488Z,6.43
2023-02-09T15:48:08.124Z,5.92
2023-02-09T15:50:34.847Z,6.25
2023-02-09T15:53:01.620Z,6.56
2023-02-09T15:55:28.320Z,6.64
2023-02-09T15:57:54.985Z,6.63
2023-02-09T16:00:21.659Z,6.70
2023-02-09T16:02:48.346Z,6.70
2023-02-09T16:05:15.090Z,6.67
2023-02-09T16:07:41.739Z,6.64
2023-02-09T16:10:08.338Z,6.57
2023-02-09T16:12:35.032Z,6.63
2023-02-09T16:15:01.671Z,6.63
2023-02-09T16:17:28.574Z,6.65
2023-02-09T16:19:55.224Z,6.63
2023-02-09T16:22:22.391Z,6.58
2023-02-09T16:24:49.062Z,6.48
2023-02-09T16:27:15.778Z,6.47
2023-02-09T16:29:42.402Z,6.17
2023-02-09T16:32:09.354Z,5.88
2023-02-09T16:34:36.053Z,5.50
2023-02-09T16:37:02.683Z,5.59
2023-02-09T16:39:29.377Z,5.64
2023-02-09T16:41:56.041Z,5.62
2023-02-09T16:44:22.758Z,5.65
2023-02-09T16:46:49.497Z,5.61
2023-02-09T16:49:16.120Z,5.54
2023-02-09T16:51:44.747Z,5.53
2023-02-09T16:54:11.374Z,5.53
2023-02-09T16:56:52.524Z,5.49
2023-02-09T16:59:20.518Z,5.47
2023-02-09T17:01:48.518Z,5.37
2023-02-09T17:04:15.434Z,5.32
2023-02-09T17:06:42.116Z,5.18
2023-02-09T17:09:08.765Z,5.26
2023-02-09T17:11:35.435Z,5.20
2023-02-09T17:14:02.089Z,5.16
2023-02-09T17:16:28.820Z,5.15
2023-02-09T17:18:55.507Z,4.95
2023-02-09T17:21:22.183Z,4.76
2023-02-09T17:23:48.891Z,4.82
2023-02-09T17:26:15.530Z,4.88
2023-02-09T17:28:43.135Z,4.86
2023-02-09T17:31:09.873Z,4.83
2023-02-09T17:33:36.570Z,4.78
2023-02-09T17:38:53.309Z,4.52
2023-02-09T17:41:19.987Z,4.57
2023-02-09T17:43:46.651Z,4.29
2023-02-09T17:46:13.327Z,4.01
2023-02-09T17:48:40.023Z,3.81
2023-02-09T17:51:06.730Z,3.95
2023-02-09T17:53:33.422Z,4.05
2023-02-09T17:56:00.136Z,4.08
2023-02-09T17:58:26.777Z,4.11
2023-02-09T18:00:53.507Z,4.21
2023-02-09T18:03:20.160Z,4.15
2023-02-09T18:05:46.999Z,4.02
2023-02-09T18:08:13.866Z,3.63
2023-02-09T18:10:40.542Z,3.61
2023-02-09T18:13:07.159Z,3.74
2023-02-09T18:15:33.796Z,3.84
2023-02-09T18:18:00.434Z,3.78
2023-02-09T18:20:27.055Z,3.78
2023-02-09T18:22:53.735Z,3.82
2023-02-09T18:25:20.414Z,3.85
2023-02-09T18:27:47.089Z,3.81
2023-02-09T18:30:13.757Z,3.69
2023-02-09T18:32:40.387Z,3.62
2023-02-09T18:35:07.142Z,3.39
2023-02-09T18:37:33.745Z,3.32
2023-02-09T18:40:00.376Z,3.39
2023-02-09T18:42:27.030Z,3.44
2023-02-09T18:44:53.692Z,3.42
2023-02-09T18:47:20.394Z,3.47
2023-02-09T18:49:47.066Z,3.40
2023-02-09T18:52:13.805Z,3.37
2023-02-09T18:54:40.528Z,3.24
2023-02-09T18:57:07.152Z,3.07
2023-02-09T18:59:33.829Z,3.15
2023-02-09T19:02:00.601Z,3.00
2023-02-09T19:04:27.381Z,2.82
2023-02-09T19:06:54.008Z,2.97
2023-02-09T19:09:20.704Z,2.98
2023-02-09T19:11:47.363Z,3.00
2023-02-09T19:14:14.072Z,3.04
2023-02-09T19:16:40.807Z,2.80
2023-02-09T19:19:07.447Z,2.78
2023-02-09T19:21:34.108Z,2.92
2023-02-09T19:24:00.774Z,2.60
2023-02-09T19:26:27.425Z,2.68
2023-02-09T19:28:54.093Z,2.80
2023-02-09T19:31:20.856Z,2.73
2023-02-09T19:33:47.465Z,2.62
2023-02-09T19:36:14.066Z,2.46
2023-02-09T19:38:40.757Z,2.50
2023-02-09T19:41:10.836Z,2.10
2023-02-09T19:43:37.670Z,2.07
2023-02-09T19:46:04.381Z,2.26
2023-02-09T19:48:31.095Z,1.96
2023-02-09T19:50:57.714Z,2.16
2023-02-09T19:53:24.407Z,2.30
2023-02-09T19:55:51.091Z,2.35
2023-02-09T19:58:17.782Z,2.28
2023-02-09T20:00:44.494Z,2.37
2023-02-09T20:03:11.114Z,2.14
2023-02-09T20:05:37.810Z,2.00
2023-02-09T20:08:04.498Z,1.95
2023-02-09T20:10:31.212Z,1.91
2023-02-09T20:12:57.846Z,2.03
2023-02-09T20:15:24.484Z,1.88
2023-02-09T20:17:51.277Z,1.87
2023-02-09T20:20:18.013Z,1.89
2023-02-09T20:22:44.770Z,1.94
2023-02-09T20:25:11.486Z,2.02
2023-02-09T20:27:38.243Z,2.00
2023-02-09T20:30:04.970Z,1.82
2023-02-09T20:32:31.678Z,1.75
2023-02-09T20:34:58.409Z,1.79
2023-02-09T20:37:25.091Z,1.82
2023-02-09T20:39:51.745Z,1.78
2023-02-09T20:42:18.479Z,1.73
2023-02-09T20:44:45.166Z,1.56
2023-02-09T20:47:11.905Z,1.53
2023-02-09T20:49:38.531Z,1.56
2023-02-09T20:52:05.188Z,1.43
2023-02-09T20:54:31.912Z,1.50
2023-02-09T20:56:58.593Z,1.49
2023-02-09T20:59:25.226Z,1.58
2023-02-09T21:01:51.829Z,1.62
2023-02-09T21:04:18.519Z,1.63
2023-02-09T21:06:45.273Z,1.56
2023-02-09T21:09:12.006Z,1.61
2023-02-09T21:11:38.672Z,1.63
2023-02-09T21:14:05.356Z,1.46
2023-02-09T21:16:32.055Z,1.63
2023-02-09T21:19:00.518Z,1.57
2023-02-09T21:21:27.146Z,1.62
2023-02-09T21:23:53.841Z,1.39
2023-02-09T21:26:20.492Z,1.31
2023-02-09T21:28:47.143Z,1.39
2023-02-09T21:31:13.794Z,1.35
2023-02-09T21:33:40.504Z,1.26
2023-02-09T21:36:07.175Z,1.32
2023-02-09T21:38:33.800Z,1.16
2023-02-09T21:41:00.540Z,0.81
2023-02-09T21:43:27.204Z,0.85
2023-02-09T21:45:53.913Z,0.83
2023-02-09T21:48:20.538Z,0.91
2023-02-09T21:50:47.149Z,0.96
2023-02-09T21:53:13.845Z,1.03
2023-02-09T21:55:40.527Z,0.98
2023-02-09T21:58:07.249Z,0.62
2023-02-09T22:00:33.939Z,0.66
2023-02-09T22:03:00.571Z,0.77
2023-02-09T22:05:27.219Z,0.81
2023-02-09T22:07:53.813Z,0.79
2023-02-09T22:10:20.481Z,0.82
2023-02-09T22:12:47.170Z,0.85
2023-02-09T22:15:13.829Z,0.77
2023-02-09T22:17:40.465Z,0.61
2023-02-09T22:20:07.171Z,0.71
2023-02-09T22:22:33.768Z,0.75
2023-02-09T22:25:00.435Z,0.63
2023-02-09T22:27:27.058Z,0.66
2023-02-09T22:29:53.797Z,0.67
2023-02-09T22:32:20.424Z,0.68
2023-02-09T22:34:47.102Z,0.71
2023-02-09T22:37:13.755Z,0.73
2023-02-09T22:39:40.482Z,0.65
2023-02-09T22:42:07.168Z,0.42
2023-02-09T22:44:33.836Z,0.33
2023-02-09T22:47:00.454Z,0.40
2023-02-09T22:49:27.146Z,0.47
2023-02-09T22:51:53.765Z,0.39
2023-02-09T22:54:20.383Z,0.24
2023-02-09T22:56:47.073Z,0.20
2023-02-09T22:59:13.663Z,0.24
2023-02-09T23:01:40.423Z,0.33
2023-02-09T23:04:07.236Z,0.35
2023-02-09T23:06:34.104Z,0.27
2023-02-09T23:09:00.716Z,0.30
2023-02-09T23:11:27.371Z,0.32
2023-02-09T23:14:08.589Z,0.30
2023-02-09T23:16:36.542Z,0.29
2023-02-09T23:19:03.305Z,0.36
2023-02-09T23:21:29.937Z,0.27
2023-02-09T23:23:56.641Z,0.34
2023-02-09T23:26:23.329Z,0.33
2023-02-09T23:28:50.071Z,0.18
2023-02-09T23:31:16.779Z,0.05
2023-02-09T23:33:43.454Z,0.17
2023-02-09T23:36:10.140Z,0.22
2023-02-09T23:38:36.809Z,0.05
2023-02-09T23:41:03.489Z,0.04
2023-02-09T23:43:30.137Z,0.03
2023-02-09T23:45:56.841Z,-0.01
2023-02-09T23:48:23.516Z,-0.03
2023-02-09T23:50:50.225Z,0.04
2023-02-09T23:53:16.869Z,0.11
2023-02-09T23:55:43.535Z,0.07
2023-02-09T23:58:10.207Z,-0.11
